createdAt,value
2017-12-19T00:01:15.305Z,4.06
2017-12-19T00:03:42.718Z,4.10
2017-12-19T00:06:10.126Z,4.14
2017-12-19T00:08:37.574Z,4.11
2017-12-19T00:11:05.063Z,4.11
2017-12-19T00:13:32.496Z,4.11
2017-12-19T00:15:59.951Z,4.13
2017-12-19T00:18:27.369Z,4.13
2017-12-19T00:20:54.789Z,4.09
2017-12-19T00:23:22.361Z,4.06
2017-12-19T00:25:49.785Z,4.08
2017-12-19T00:28:17.201Z,4.05
2017-12-19T00:30:44.646Z,4.07
2017-12-19T00:33:12.065Z,3.99
2017-12-19T00:35:39.480Z,4.01
2017-12-19T00:38:06.909Z,3.98
2017-12-19T00:40:34.321Z,4.03
2017-12-19T00:43:01.754Z,3.95
2017-12-19T00:45:29.213Z,3.85
2017-12-19T00:47:56.641Z,3.93
2017-12-19T00:50:24.054Z,3.97
2017-12-19T00:52:51.481Z,3.94
2017-12-19T00:55:18.902Z,3.95
2017-12-19T00:57:46.322Z,3.89
2017-12-19T01:00:13.766Z,3.93
2017-12-19T01:02:41.186Z,3.90
2017-12-19T01:05:08.649Z,3.79
2017-12-19T01:07:36.129Z,3.83
2017-12-19T01:10:03.553Z,3.76
2017-12-19T01:12:30.956Z,3.67
2017-12-19T01:14:58.389Z,3.63
2017-12-19T01:17:25.810Z,3.59
2017-12-19T01:19:53.245Z,3.59
2017-12-19T01:22:20.678Z,3.65
2017-12-19T01:24:48.090Z,3.63
2017-12-19T01:27:15.497Z,3.63
2017-12-19T01:29:42.950Z,3.58
2017-12-19T01:32:10.406Z,3.56
2017-12-19T01:34:37.838Z,3.47
2017-12-19T01:37:05.295Z,3.47
2017-12-19T01:39:32.741Z,3.46
2017-12-19T01:42:00.172Z,3.50
2017-12-19T01:44:27.594Z,3.60
2017-12-19T01:46:55.006Z,3.66
2017-12-19T01:49:22.417Z,3.72
2017-12-19T01:51:49.865Z,3.75
2017-12-19T01:54:17.302Z,3.68
2017-12-19T01:56:44.721Z,3.65
2017-12-19T01:59:12.190Z,3.74
2017-12-19T02:01:39.593Z,3.73
2017-12-19T02:04:07.017Z,3.69
2017-12-19T02:06:34.445Z,3.61
2017-12-19T02:09:01.865Z,3.61
2017-12-19T02:11:29.296Z,3.66
2017-12-19T02:13:56.744Z,3.75
2017-12-19T02:16:24.164Z,3.82
2017-12-19T02:18:51.573Z,3.91
2017-12-19T02:21:19.000Z,3.90
2017-12-19T02:23:46.421Z,3.91
2017-12-19T02:26:13.849Z,3.91
2017-12-19T02:28:41.377Z,3.75
2017-12-19T02:31:08.794Z,3.79
2017-12-19T02:33:36.211Z,3.81
2017-12-19T02:36:03.661Z,3.85
2017-12-19T02:38:31.081Z,3.94
2017-12-19T02:40:58.491Z,3.91
2017-12-19T02:43:25.916Z,3.97
2017-12-19T02:45:54.642Z,3.90
2017-12-19T02:48:22.049Z,3.98
2017-12-19T02:50:49.469Z,4.05
2017-12-19T02:53:16.902Z,4.12
2017-12-19T02:55:44.317Z,4.20
2017-12-19T02:58:11.750Z,4.20
2017-12-19T03:00:39.437Z,4.21
2017-12-19T03:03:06.876Z,4.32
2017-12-19T03:05:34.313Z,4.31
2017-12-19T03:08:01.721Z,4.34
2017-12-19T03:10:29.137Z,4.27
2017-12-19T03:12:56.583Z,4.25
2017-12-19T03:15:23.993Z,4.26
2017-12-19T03:17:51.429Z,4.25
2017-12-19T03:20:18.875Z,4.24
2017-12-19T03:22:46.313Z,4.24
2017-12-19T03:25:13.737Z,4.34
2017-12-19T03:27:41.161Z,4.34
2017-12-19T03:30:08.578Z,4.39
2017-12-19T03:32:37.526Z,4.42
2017-12-19T03:35:04.954Z,4.42
2017-12-19T03:37:32.397Z,4.39
2017-12-19T03:39:59.825Z,4.38
2017-12-19T03:42:27.309Z,4.42
2017-12-19T03:44:54.761Z,4.39
2017-12-19T03:47:22.206Z,4.42
2017-12-19T03:49:49.628Z,4.41
2017-12-19T03:52:17.049Z,4.40
2017-12-19T03:54:44.461Z,4.41
2017-12-19T03:57:11.883Z,4.47
2017-12-19T03:59:39.286Z,4.49
2017-12-19T04:02:06.701Z,4.54
2017-12-19T04:04:34.137Z,4.52
2017-12-19T04:07:01.546Z,4.54
2017-12-19T04:09:29.310Z,4.56
2017-12-19T04:11:56.738Z,4.60
2017-12-19T04:14:24.168Z,4.57
2017-12-19T04:16:51.566Z,4.55
2017-12-19T04:19:18.985Z,4.52
2017-12-19T04:21:46.402Z,4.54
2017-12-19T04:24:13.805Z,4.54
2017-12-19T04:26:41.223Z,4.54
2017-12-19T04:29:08.629Z,4.51
2017-12-19T04:31:36.045Z,4.52
2017-12-19T04:34:03.469Z,4.54
2017-12-19T04:36:30.893Z,4.58
2017-12-19T04:38:58.301Z,4.57
2017-12-19T04:41:25.718Z,4.57
2017-12-19T04:43:53.139Z,4.54
2017-12-19T04:46:20.549Z,4.55
2017-12-19T04:48:48.065Z,4.61
2017-12-19T04:51:15.483Z,4.64
2017-12-19T04:53:42.885Z,4.64
2017-12-19T04:56:10.522Z,4.66
2017-12-19T04:58:37.937Z,4.67
2017-12-19T05:01:05.366Z,4.70
2017-12-19T05:03:32.893Z,4.70
2017-12-19T05:06:00.313Z,4.72
2017-12-19T05:08:27.767Z,4.73
2017-12-19T05:10:55.206Z,4.76
2017-12-19T05:13:22.621Z,4.80
2017-12-19T05:15:50.054Z,4.75
2017-12-19T05:18:17.774Z,4.74
2017-12-19T05:20:45.187Z,4.72
2017-12-19T05:23:12.598Z,4.71
2017-12-19T05:25:40.052Z,4.69
2017-12-19T05:28:07.472Z,4.69
2017-12-19T05:30:34.886Z,4.70
2017-12-19T05:33:02.402Z,4.70
2017-12-19T05:35:29.817Z,4.60
2017-12-19T05:37:57.239Z,4.63
2017-12-19T05:40:24.682Z,4.71
2017-12-19T05:42:52.089Z,4.72
2017-12-19T05:45:19.497Z,4.73
2017-12-19T05:47:46.949Z,4.74
2017-12-19T05:50:14.377Z,4.75
2017-12-19T05:52:41.769Z,4.77
2017-12-19T05:55:09.214Z,4.78
2017-12-19T05:57:36.640Z,4.81
2017-12-19T06:00:04.061Z,4.85
2017-12-19T06:02:31.496Z,4.84
2017-12-19T06:04:58.898Z,4.83
2017-12-19T06:07:26.305Z,4.81
2017-12-19T06:09:53.742Z,4.82
2017-12-19T06:12:21.173Z,4.83
2017-12-19T06:14:48.576Z,4.82
2017-12-19T06:17:16.062Z,4.89
2017-12-19T06:19:43.478Z,4.85
2017-12-19T06:22:10.877Z,4.85
2017-12-19T06:24:38.301Z,4.85
2017-12-19T06:27:05.710Z,4.85
2017-12-19T06:29:33.125Z,4.82
2017-12-19T06:32:00.549Z,4.80
2017-12-19T06:34:27.961Z,4.87
2017-12-19T06:36:55.364Z,4.80
2017-12-19T06:39:22.794Z,4.86
2017-12-19T06:41:50.204Z,4.82
2017-12-19T06:44:17.629Z,4.85
2017-12-19T06:46:45.076Z,4.83
2017-12-19T06:49:12.493Z,4.81
2017-12-19T06:51:39.924Z,4.80
2017-12-19T06:54:07.354Z,4.85
2017-12-19T06:56:34.757Z,4.85
2017-12-19T06:59:02.165Z,4.83
2017-12-19T07:01:29.625Z,4.82
2017-12-19T07:03:57.044Z,4.79
2017-12-19T07:06:24.453Z,4.79
2017-12-19T07:08:51.869Z,4.83
2017-12-19T07:11:19.333Z,4.79
2017-12-19T07:13:46.774Z,4.80
2017-12-19T07:16:14.213Z,4.85
2017-12-19T07:18:41.681Z,4.87
2017-12-19T07:21:09.103Z,4.86
2017-12-19T07:23:36.659Z,4.84
2017-12-19T07:26:04.087Z,4.82
2017-12-19T07:28:31.504Z,4.82
2017-12-19T07:30:58.968Z,4.83
2017-12-19T07:33:26.368Z,4.86
2017-12-19T07:35:53.778Z,4.88
2017-12-19T07:38:21.222Z,4.85
2017-12-19T07:40:48.649Z,4.87
2017-12-19T07:43:16.061Z,4.88
2017-12-19T07:45:43.481Z,4.87
2017-12-19T07:48:10.956Z,4.87
2017-12-19T07:50:39.265Z,4.90
2017-12-19T07:53:06.694Z,4.89
2017-12-19T07:55:34.121Z,4.88
2017-12-19T07:58:01.541Z,4.95
2017-12-19T08:00:29.081Z,4.93
2017-12-19T08:02:56.509Z,4.95
2017-12-19T08:05:23.921Z,4.96
2017-12-19T08:07:51.454Z,4.95
2017-12-19T08:10:18.805Z,4.92
2017-12-19T08:12:46.217Z,4.95
2017-12-19T08:15:13.632Z,5.01
2017-12-19T08:17:41.038Z,5.01
2017-12-19T08:20:08.456Z,4.99
2017-12-19T08:22:35.895Z,5.01
2017-12-19T08:25:03.305Z,4.96
2017-12-19T08:27:30.718Z,4.98
2017-12-19T08:29:58.249Z,5.01
2017-12-19T08:32:25.978Z,5.08
2017-12-19T08:34:53.384Z,5.09
2017-12-19T08:37:20.829Z,5.12
2017-12-19T08:39:48.255Z,5.18
2017-12-19T08:42:15.662Z,5.21
2017-12-19T08:44:43.081Z,5.21
2017-12-19T08:47:10.489Z,5.23
2017-12-19T08:49:37.956Z,5.24
2017-12-19T08:52:05.317Z,5.25
2017-12-19T08:54:32.725Z,5.24
2017-12-19T08:57:00.168Z,5.28
2017-12-19T08:59:27.597Z,5.33
2017-12-19T09:01:55.117Z,5.31
2017-12-19T09:04:22.548Z,5.35
2017-12-19T09:06:50.000Z,5.41
2017-12-19T09:09:17.402Z,5.43
2017-12-19T09:11:44.802Z,5.51
2017-12-19T09:14:12.251Z,5.52
2017-12-19T09:16:39.670Z,5.55
2017-12-19T09:19:07.206Z,5.60
2017-12-19T09:21:34.705Z,5.61
2017-12-19T09:24:02.066Z,5.65
2017-12-19T09:26:29.497Z,5.70
2017-12-19T09:28:56.925Z,5.77
2017-12-19T09:31:24.394Z,5.68
2017-12-19T09:33:51.808Z,5.67
2017-12-19T09:36:19.261Z,5.69
2017-12-19T09:38:46.673Z,5.72
2017-12-19T09:41:14.088Z,5.75
2017-12-19T09:43:41.575Z,5.78
2017-12-19T09:46:09.009Z,5.81
2017-12-19T09:48:36.412Z,5.85
2017-12-19T09:51:03.845Z,5.88
2017-12-19T09:53:31.265Z,5.88
2017-12-19T09:55:58.673Z,5.93
2017-12-19T09:58:26.107Z,5.97
2017-12-19T10:00:53.514Z,6.02
2017-12-19T10:03:21.793Z,6.05
2017-12-19T10:05:49.238Z,6.05
2017-12-19T10:08:16.653Z,6.07
2017-12-19T10:10:44.069Z,6.08
2017-12-19T10:13:11.478Z,6.12
2017-12-19T10:15:38.912Z,6.15
2017-12-19T10:18:06.313Z,6.14
2017-12-19T10:20:33.725Z,6.13
2017-12-19T10:23:01.133Z,6.11
2017-12-19T10:25:28.545Z,6.10
2017-12-19T10:27:55.993Z,6.09
2017-12-19T10:30:23.446Z,6.12
2017-12-19T10:32:50.859Z,6.12
2017-12-19T10:35:18.298Z,6.10
2017-12-19T10:37:45.729Z,6.13
2017-12-19T10:40:13.165Z,6.18
2017-12-19T10:42:40.585Z,6.17
2017-12-19T10:45:08.001Z,6.17
2017-12-19T10:47:35.425Z,6.19
2017-12-19T10:50:02.842Z,6.25
2017-12-19T10:52:30.272Z,6.27
2017-12-19T10:54:57.721Z,6.30
2017-12-19T10:57:25.170Z,6.36
2017-12-19T10:59:52.594Z,6.43
2017-12-19T11:02:19.999Z,6.42
2017-12-19T11:04:47.453Z,6.46
2017-12-19T11:07:14.866Z,6.51
2017-12-19T11:09:42.317Z,6.48
2017-12-19T11:12:09.747Z,6.44
2017-12-19T11:14:37.161Z,6.44
2017-12-19T11:17:04.609Z,6.46
2017-12-19T11:19:32.122Z,6.47
2017-12-19T11:21:59.563Z,6.50
2017-12-19T11:24:27.008Z,6.51
2017-12-19T11:26:54.447Z,6.57
2017-12-19T11:29:21.870Z,6.59
2017-12-19T11:31:49.305Z,6.65
2017-12-19T11:34:16.725Z,6.69
2017-12-19T11:36:44.129Z,6.73
2017-12-19T11:39:11.558Z,6.68
2017-12-19T11:41:39.029Z,6.70
2017-12-19T11:44:06.438Z,6.72
2017-12-19T11:46:33.844Z,6.65
2017-12-19T11:49:01.286Z,6.64
2017-12-19T11:51:28.696Z,6.65
2017-12-19T11:53:56.133Z,6.65
2017-12-19T11:56:23.623Z,6.67
2017-12-19T11:58:51.029Z,6.70
2017-12-19T12:01:18.437Z,6.68
2017-12-19T12:03:46.049Z,6.66
2017-12-19T12:06:13.454Z,6.67
2017-12-19T12:08:40.889Z,6.70
2017-12-19T12:11:08.325Z,6.70
2017-12-19T12:13:35.773Z,6.71
2017-12-19T12:16:03.195Z,6.73
2017-12-19T12:18:30.634Z,6.76
2017-12-19T12:20:58.170Z,6.76
2017-12-19T12:23:25.617Z,6.76
2017-12-19T12:25:53.038Z,6.76
2017-12-19T12:28:20.437Z,6.76
2017-12-19T12:30:47.849Z,6.77
2017-12-19T12:33:15.293Z,6.79
2017-12-19T12:35:42.705Z,6.76
2017-12-19T12:38:10.120Z,6.79
2017-12-19T12:40:37.540Z,6.82
2017-12-19T12:43:04.941Z,6.82
2017-12-19T12:45:32.382Z,6.86
2017-12-19T12:47:59.866Z,6.90
2017-12-19T12:50:27.280Z,6.88
2017-12-19T12:52:54.713Z,6.91
2017-12-19T12:55:22.158Z,6.94
2017-12-19T12:57:49.581Z,6.94
2017-12-19T13:00:17.002Z,7.00
2017-12-19T13:02:44.482Z,7.02
2017-12-19T13:05:11.925Z,7.00
2017-12-19T13:07:39.368Z,7.04
2017-12-19T13:10:06.839Z,7.01
2017-12-19T13:12:34.257Z,7.05
2017-12-19T13:15:01.664Z,7.06
2017-12-19T13:17:29.104Z,7.05
2017-12-19T13:19:56.519Z,7.07
2017-12-19T13:22:23.933Z,7.06
2017-12-19T13:24:51.446Z,7.10
2017-12-19T13:27:18.854Z,7.06
2017-12-19T13:29:46.265Z,7.04
2017-12-19T13:32:13.719Z,7.02
2017-12-19T13:34:41.125Z,7.04
2017-12-19T13:37:08.550Z,7.08
2017-12-19T13:39:35.992Z,7.09
2017-12-19T13:42:03.430Z,7.09
2017-12-19T13:44:30.841Z,7.12
2017-12-19T13:46:58.277Z,7.08
2017-12-19T13:49:25.685Z,7.12
2017-12-19T13:51:53.110Z,7.09
2017-12-19T13:54:20.551Z,7.04
2017-12-19T13:56:47.961Z,6.85
2017-12-19T13:59:15.369Z,6.80
2017-12-19T14:01:42.790Z,6.75
2017-12-19T14:04:12.066Z,6.84
2017-12-19T14:06:39.462Z,6.90
2017-12-19T14:09:07.005Z,6.90
2017-12-19T14:11:34.674Z,6.96
2017-12-19T14:14:02.249Z,6.98
2017-12-19T14:16:29.693Z,6.99
2017-12-19T14:18:57.102Z,7.02
2017-12-19T14:21:24.672Z,7.06
2017-12-19T14:23:52.092Z,7.09
2017-12-19T14:26:19.497Z,7.10
2017-12-19T14:28:48.017Z,7.12
2017-12-19T14:31:15.494Z,7.17
2017-12-19T14:33:42.897Z,7.21
2017-12-19T14:36:10.317Z,7.24
2017-12-19T14:38:37.758Z,7.25
2017-12-19T14:41:05.167Z,7.17
2017-12-19T14:43:32.573Z,7.19
2017-12-19T14:46:00.010Z,7.15
2017-12-19T14:48:27.418Z,7.15
2017-12-19T14:50:55.038Z,7.12
2017-12-19T14:53:22.537Z,7.04
2017-12-19T14:55:49.937Z,7.05
2017-12-19T14:58:17.353Z,7.05
2017-12-19T15:00:44.790Z,7.08
2017-12-19T15:03:20.188Z,7.16
2017-12-19T15:05:47.610Z,7.17
2017-12-19T15:08:15.022Z,7.22
2017-12-19T15:10:42.434Z,7.26
2017-12-19T15:13:10.846Z,7.25
2017-12-19T15:15:38.262Z,7.21
2017-12-19T15:18:05.669Z,7.21
2017-12-19T15:20:33.121Z,7.21
2017-12-19T15:23:00.533Z,7.23
2017-12-19T15:25:27.954Z,7.22
2017-12-19T15:27:55.381Z,7.19
2017-12-19T15:30:23.126Z,7.16
2017-12-19T15:32:50.541Z,7.17
2017-12-19T15:35:17.975Z,7.15
2017-12-19T15:37:45.381Z,7.12
2017-12-19T15:40:12.790Z,7.13
2017-12-19T15:42:40.706Z,7.13
2017-12-19T15:45:08.409Z,7.12
2017-12-19T15:47:35.818Z,7.15
2017-12-19T15:50:03.274Z,7.13
2017-12-19T15:52:30.694Z,7.14
2017-12-19T15:54:58.105Z,7.15
2017-12-19T15:57:25.529Z,7.15
2017-12-19T15:59:52.953Z,7.13
2017-12-19T16:02:20.409Z,7.14
2017-12-19T16:04:47.825Z,7.12
2017-12-19T16:07:15.238Z,7.12
2017-12-19T16:09:42.645Z,7.17
2017-12-19T16:12:10.098Z,7.20
2017-12-19T16:14:37.513Z,7.16
2017-12-19T16:17:04.945Z,7.15
2017-12-19T16:19:32.364Z,7.13
2017-12-19T16:21:59.769Z,7.21
2017-12-19T16:24:27.185Z,7.30
2017-12-19T16:26:54.624Z,7.29
2017-12-19T16:29:22.033Z,7.33
2017-12-19T16:31:49.445Z,7.35
2017-12-19T16:34:16.882Z,7.29
2017-12-19T16:36:44.292Z,7.30
2017-12-19T16:39:11.734Z,7.26
2017-12-19T16:41:39.188Z,7.25
2017-12-19T16:44:06.586Z,7.27
2017-12-19T16:46:33.998Z,7.27
2017-12-19T16:49:01.413Z,7.29
2017-12-19T16:51:28.825Z,7.31
2017-12-19T16:53:56.241Z,7.29
2017-12-19T16:56:23.677Z,7.30
2017-12-19T16:58:51.090Z,7.28
2017-12-19T17:01:18.506Z,7.27
2017-12-19T17:03:45.924Z,7.28
2017-12-19T17:06:13.332Z,7.27
2017-12-19T17:08:40.776Z,7.27
2017-12-19T17:11:08.181Z,7.28
2017-12-19T17:13:35.593Z,7.29
2017-12-19T17:16:03.002Z,7.29
2017-12-19T17:18:30.454Z,7.31
2017-12-19T17:20:57.861Z,7.28
2017-12-19T17:23:25.273Z,7.30
2017-12-19T17:25:52.701Z,7.28
2017-12-19T17:28:20.110Z,7.28
2017-12-19T17:30:47.521Z,7.24
2017-12-19T17:33:15.034Z,7.26
2017-12-19T17:35:42.482Z,7.28
2017-12-19T17:38:09.885Z,7.21
2017-12-19T17:40:37.401Z,7.23
2017-12-19T17:43:04.821Z,7.23
2017-12-19T17:45:32.237Z,7.25
2017-12-19T17:47:59.653Z,7.25
2017-12-19T17:50:27.062Z,7.24
2017-12-19T17:52:54.538Z,7.20
2017-12-19T17:55:21.956Z,7.20
2017-12-19T17:57:49.385Z,7.16
2017-12-19T18:00:16.797Z,7.14
2017-12-19T18:02:44.318Z,7.13
2017-12-19T18:05:11.746Z,7.14
2017-12-19T18:07:39.165Z,7.15
2017-12-19T18:10:06.597Z,7.14
2017-12-19T18:12:34.025Z,7.17
2017-12-19T18:15:01.488Z,7.16
2017-12-19T18:17:28.961Z,7.14
2017-12-19T18:19:59.729Z,7.15
2017-12-19T18:22:27.126Z,7.14
2017-12-19T18:24:54.570Z,7.15
2017-12-19T18:27:21.974Z,7.10
2017-12-19T18:29:49.409Z,7.14
2017-12-19T18:32:18.385Z,7.16
2017-12-19T18:34:45.793Z,7.19
2017-12-19T18:37:14.881Z,7.23
2017-12-19T18:39:42.329Z,7.23
2017-12-19T18:42:09.863Z,7.19
2017-12-19T18:44:37.261Z,7.23
2017-12-19T18:47:04.736Z,7.20
2017-12-19T18:49:32.210Z,7.22
2017-12-19T18:51:59.988Z,7.19
2017-12-19T18:54:27.418Z,7.17
2017-12-19T18:56:54.831Z,7.15
2017-12-19T18:59:23.234Z,7.13
2017-12-19T19:01:50.753Z,7.02
2017-12-19T19:04:18.265Z,6.99
2017-12-19T19:06:45.674Z,7.02
2017-12-19T19:09:13.117Z,7.05
2017-12-19T19:11:40.525Z,7.04
2017-12-19T19:14:08.517Z,7.04
2017-12-19T19:16:36.752Z,7.09
2017-12-19T19:19:04.189Z,7.11
2017-12-19T19:21:32.405Z,7.16
2017-12-19T19:24:00.029Z,7.15
2017-12-19T19:26:28.017Z,7.12
2017-12-19T19:28:56.026Z,7.09
2017-12-19T19:31:24.046Z,7.06
2017-12-19T19:33:52.161Z,7.07
2017-12-19T19:36:19.574Z,7.04
2017-12-19T19:38:47.080Z,6.99
2017-12-19T19:41:14.493Z,6.95
2017-12-19T19:43:41.922Z,6.88
2017-12-19T19:46:09.341Z,6.79
2017-12-19T19:48:36.751Z,6.77
2017-12-19T19:51:04.172Z,6.84
2017-12-19T19:53:31.601Z,6.83
2017-12-19T19:55:59.001Z,6.82
2017-12-19T19:58:26.422Z,6.70
2017-12-19T20:00:53.869Z,6.81
2017-12-19T20:03:21.277Z,6.82
2017-12-19T20:05:48.705Z,6.84
2017-12-19T20:08:16.125Z,6.79
2017-12-19T20:10:43.542Z,6.76
2017-12-19T20:13:10.949Z,6.77
2017-12-19T20:15:38.405Z,6.79
2017-12-19T20:18:05.847Z,6.74
2017-12-19T20:20:33.222Z,6.68
2017-12-19T20:23:00.672Z,6.65
2017-12-19T20:25:28.120Z,6.65
2017-12-19T20:27:55.525Z,6.57
2017-12-19T20:30:23.051Z,6.57
2017-12-19T20:32:50.458Z,6.60
2017-12-19T20:35:17.861Z,6.60
2017-12-19T20:37:45.290Z,6.67
2017-12-19T20:40:12.701Z,6.68
2017-12-19T20:42:40.109Z,6.67
2017-12-19T20:45:07.562Z,6.66
2017-12-19T20:47:34.963Z,6.64
2017-12-19T20:50:02.365Z,6.64
2017-12-19T20:52:29.820Z,6.65
2017-12-19T20:54:57.238Z,6.54
2017-12-19T20:57:24.642Z,6.58
2017-12-19T20:59:52.158Z,6.57
2017-12-19T21:02:19.570Z,6.62
2017-12-19T21:04:46.978Z,6.58
2017-12-19T21:07:14.408Z,6.49
2017-12-19T21:09:41.813Z,6.43
2017-12-19T21:12:09.227Z,6.50
2017-12-19T21:14:36.661Z,6.55
2017-12-19T21:17:04.073Z,6.58
2017-12-19T21:19:31.485Z,6.61
2017-12-19T21:21:58.942Z,6.61
2017-12-19T21:24:26.350Z,6.57
2017-12-19T21:26:53.767Z,6.60
2017-12-19T21:29:21.209Z,6.59
2017-12-19T21:31:48.630Z,6.54
2017-12-19T21:34:16.034Z,6.55
2017-12-19T21:36:43.481Z,6.52
2017-12-19T21:39:10.881Z,6.50
2017-12-19T21:41:38.292Z,6.50
2017-12-19T21:44:05.706Z,6.53
2017-12-19T21:46:33.113Z,6.61
2017-12-19T21:49:00.521Z,6.62
2017-12-19T21:51:27.950Z,6.62
2017-12-19T21:53:55.345Z,6.66
2017-12-19T21:56:22.749Z,6.65
2017-12-19T21:58:50.197Z,6.64
2017-12-19T22:01:17.613Z,6.70
2017-12-19T22:03:45.014Z,6.67
2017-12-19T22:06:12.433Z,6.73
2017-12-19T22:08:39.846Z,6.71
2017-12-19T22:11:07.250Z,6.73
2017-12-19T22:13:34.685Z,6.67
2017-12-19T22:16:02.093Z,6.67
2017-12-19T22:18:29.508Z,6.72
2017-12-19T22:20:56.945Z,6.67
2017-12-19T22:23:24.357Z,6.61
2017-12-19T22:25:51.771Z,6.66
2017-12-19T22:28:19.220Z,6.62
2017-12-19T22:30:46.597Z,6.63
2017-12-19T22:33:14.022Z,6.63
2017-12-19T22:35:41.436Z,6.63
2017-12-19T22:38:08.853Z,6.67
2017-12-19T22:40:36.257Z,6.65
2017-12-19T22:43:03.681Z,6.65
2017-12-19T22:45:31.086Z,6.67
2017-12-19T22:47:58.493Z,6.69
2017-12-19T22:50:25.925Z,6.69
2017-12-19T22:52:53.348Z,6.66
2017-12-19T22:55:20.749Z,6.67
2017-12-19T22:57:48.195Z,6.69
2017-12-19T23:00:15.609Z,6.69
2017-12-19T23:02:43.019Z,6.68
2017-12-19T23:05:10.445Z,6.72
2017-12-19T23:07:37.860Z,6.74
2017-12-19T23:10:05.270Z,6.78
2017-12-19T23:12:32.698Z,6.77
2017-12-19T23:15:00.810Z,6.73
2017-12-19T23:17:28.210Z,6.77
2017-12-19T23:19:55.634Z,6.78
2017-12-19T23:22:23.049Z,6.78
2017-12-19T23:24:50.462Z,6.83
2017-12-19T23:27:17.930Z,6.79
2017-12-19T23:29:45.354Z,6.71
2017-12-19T23:32:12.782Z,6.76
2017-12-19T23:34:40.217Z,6.76
2017-12-19T23:37:07.635Z,6.74
2017-12-19T23:39:35.038Z,6.77
2017-12-19T23:42:02.481Z,6.76
2017-12-19T23:44:29.889Z,6.77
2017-12-19T23:46:57.293Z,6.80
2017-12-19T23:49:24.756Z,6.82
2017-12-19T23:51:52.178Z,6.87
2017-12-19T23:54:19.582Z,6.88
2017-12-19T23:56:46.999Z,6.88
2017-12-19T23:59:14.417Z,6.92
